createdAt,value
2017-10-29T00:00:48.688Z,73.69
2017-10-29T00:03:16.179Z,73.40
2017-10-29T00:05:43.721Z,73.52
2017-10-29T00:08:11.196Z,73.34
2017-10-29T00:10:38.690Z,73.54
2017-10-29T00:13:06.181Z,73.62
2017-10-29T00:15:33.685Z,73.36
2017-10-29T00:18:01.189Z,73.60
2017-10-29T00:20:29.063Z,73.84
2017-10-29T00:22:56.561Z,73.98
2017-10-29T00:25:24.087Z,73.75
2017-10-29T00:27:51.593Z,74.16
2017-10-29T00:30:19.095Z,73.81
2017-10-29T00:32:46.587Z,73.56
2017-10-29T00:35:14.071Z,74.43
2017-10-29T00:37:41.580Z,74.23
2017-10-29T00:40:09.053Z,74.76
2017-10-29T00:42:36.562Z,74.71
2017-10-29T00:45:04.063Z,74.67
2017-10-29T00:47:31.554Z,74.73
2017-10-29T00:49:59.047Z,74.96
2017-10-29T00:52:26.546Z,74.89
2017-10-29T00:54:54.041Z,74.70
2017-10-29T00:57:21.539Z,75.00
2017-10-29T00:59:49.055Z,74.70
2017-10-29T01:02:16.550Z,74.90
2017-10-29T01:04:44.058Z,74.65
2017-10-29T01:07:11.555Z,74.87
2017-10-29T01:09:39.069Z,75.22
2017-10-29T01:12:06.584Z,75.60
2017-10-29T01:14:34.160Z,75.50
2017-10-29T01:17:01.665Z,75.55
2017-10-29T01:19:29.189Z,76.09
2017-10-29T01:21:56.668Z,75.90
2017-10-29T01:24:24.182Z,75.92
2017-10-29T01:26:51.667Z,76.05
2017-10-29T01:29:19.248Z,76.28
2017-10-29T01:31:46.728Z,76.10
2017-10-29T01:34:14.230Z,76.54
2017-10-29T01:36:41.742Z,76.57
2017-10-29T01:39:09.249Z,76.46
2017-10-29T01:41:36.730Z,77.22
2017-10-29T01:44:04.249Z,76.53
2017-10-29T01:46:31.746Z,76.88
2017-10-29T01:48:59.241Z,76.66
2017-10-29T01:51:26.738Z,76.53
2017-10-29T01:53:54.217Z,76.75
2017-10-29T01:56:21.720Z,76.72
2017-10-29T01:58:49.218Z,76.76
2017-10-29T02:01:16.709Z,76.72
2017-10-29T02:03:44.194Z,76.74
2017-10-29T02:06:11.695Z,76.83
2017-10-29T02:08:39.190Z,76.89
2017-10-29T02:11:06.681Z,76.60
2017-10-29T02:13:34.183Z,77.51
2017-10-29T02:16:01.689Z,77.06
2017-10-29T02:18:29.190Z,76.83
2017-10-29T02:20:56.673Z,76.71
2017-10-29T02:23:24.170Z,76.74
2017-10-29T02:25:51.673Z,76.58
2017-10-29T02:28:19.163Z,76.58
2017-10-29T02:30:46.688Z,76.69
2017-10-29T02:33:14.222Z,76.57
2017-10-29T02:35:41.735Z,76.69
2017-10-29T02:38:09.240Z,76.88
2017-10-29T02:40:36.746Z,76.68
2017-10-29T02:43:04.239Z,76.94
2017-10-29T02:45:31.746Z,76.74
2017-10-29T02:47:59.237Z,76.86
2017-10-29T02:50:26.743Z,77.05
2017-10-29T02:52:54.249Z,76.93
2017-10-29T02:55:21.757Z,76.83
2017-10-29T02:57:49.259Z,76.88
2017-10-29T03:00:16.767Z,76.82
2017-10-29T03:02:44.261Z,77.31
2017-10-29T03:05:11.761Z,77.53
2017-10-29T03:07:39.244Z,77.58
2017-10-29T03:10:06.737Z,77.63
2017-10-29T03:12:34.219Z,77.82
2017-10-29T03:15:01.722Z,77.75
2017-10-29T03:17:29.227Z,77.83
2017-10-29T03:19:56.720Z,78.08
2017-10-29T03:22:24.214Z,78.06
2017-10-29T03:24:51.712Z,78.03
2017-10-29T03:27:19.208Z,78.06
2017-10-29T03:29:46.704Z,78.27
2017-10-29T03:32:14.202Z,78.16
2017-10-29T03:34:41.693Z,78.16
2017-10-29T03:37:09.191Z,77.86
2017-10-29T03:39:36.677Z,77.34
2017-10-29T03:42:04.200Z,77.59
2017-10-29T03:44:31.693Z,76.83
2017-10-29T03:46:59.179Z,76.76
2017-10-29T03:49:26.661Z,76.94
2017-10-29T03:51:54.169Z,76.73
2017-10-29T03:54:21.659Z,76.74
2017-10-29T03:56:49.146Z,77.18
2017-10-29T03:59:16.639Z,77.03
2017-10-29T04:01:44.159Z,77.45
2017-10-29T04:04:11.657Z,77.36
2017-10-29T04:06:39.158Z,77.35
2017-10-29T04:09:06.670Z,76.77
2017-10-29T04:11:34.178Z,77.03
2017-10-29T04:14:01.681Z,77.20
2017-10-29T04:16:29.187Z,77.25
2017-10-29T04:18:56.688Z,77.21
2017-10-29T04:21:24.202Z,77.05
2017-10-29T04:23:51.689Z,77.07
2017-10-29T04:26:19.187Z,77.33
2017-10-29T04:28:46.707Z,77.67
2017-10-29T04:31:14.203Z,77.55
2017-10-29T04:33:41.696Z,77.46
2017-10-29T04:36:09.189Z,77.77
2017-10-29T04:38:36.712Z,77.70
2017-10-29T04:41:04.206Z,78.06
2017-10-29T04:43:31.699Z,77.78
2017-10-29T04:45:59.218Z,77.92
2017-10-29T04:48:26.759Z,77.86
2017-10-29T04:50:54.249Z,77.76
2017-10-29T04:53:21.754Z,78.19
2017-10-29T04:55:49.267Z,78.09
2017-10-29T04:58:16.756Z,78.28
2017-10-29T05:00:44.263Z,78.67
2017-10-29T05:03:11.786Z,78.87
2017-10-29T05:05:39.275Z,79.09
2017-10-29T05:08:06.774Z,79.14
2017-10-29T05:10:34.262Z,79.36
2017-10-29T05:13:01.762Z,79.50
2017-10-29T05:15:29.281Z,79.67
2017-10-29T05:17:56.780Z,79.91
2017-10-29T05:20:24.328Z,80.97
2017-10-29T05:22:51.832Z,80.73
2017-10-29T05:25:19.344Z,80.89
2017-10-29T05:27:46.862Z,81.01
2017-10-29T05:30:14.366Z,80.71
2017-10-29T05:32:41.894Z,80.92
2017-10-29T05:35:09.384Z,81.02
2017-10-29T05:37:37.046Z,81.44
2017-10-29T05:40:04.555Z,82.25
2017-10-29T05:42:32.053Z,82.80
2017-10-29T05:44:59.563Z,84.17
2017-10-29T05:47:27.057Z,84.35
2017-10-29T05:49:54.554Z,84.45
2017-10-29T05:52:22.054Z,84.45
2017-10-29T05:54:49.920Z,84.46
2017-10-29T05:57:17.426Z,84.33
2017-10-29T05:59:44.918Z,84.24
2017-10-29T06:02:12.793Z,84.28
2017-10-29T06:04:40.306Z,84.43
2017-10-29T06:07:07.790Z,84.10
2017-10-29T06:09:35.315Z,84.44
2017-10-29T06:12:02.823Z,84.86
2017-10-29T06:14:30.317Z,85.34
2017-10-29T06:16:57.803Z,85.06
2017-10-29T06:19:25.314Z,85.32
2017-10-29T06:21:52.803Z,85.38
2017-10-29T06:24:20.304Z,85.64
2017-10-29T06:26:47.815Z,85.81
2017-10-29T06:29:15.303Z,86.07
2017-10-29T06:31:42.823Z,85.98
2017-10-29T06:34:10.350Z,86.57
2017-10-29T06:36:37.845Z,88.06
2017-10-29T06:39:05.335Z,89.11
2017-10-29T06:41:32.819Z,90.02
2017-10-29T06:44:00.331Z,90.45
2017-10-29T06:46:27.842Z,91.17
2017-10-29T06:48:55.350Z,92.05
2017-10-29T06:51:22.843Z,91.86
2017-10-29T06:53:50.346Z,91.60
2017-10-29T06:56:17.830Z,91.81
2017-10-29T06:58:45.331Z,91.16
2017-10-29T07:01:12.819Z,91.55
2017-10-29T07:03:40.298Z,91.12
2017-10-29T07:06:07.789Z,91.01
2017-10-29T07:08:35.316Z,90.81
2017-10-29T07:11:02.883Z,90.02
2017-10-29T07:13:30.393Z,89.63
2017-10-29T07:15:57.869Z,89.43
2017-10-29T07:18:25.358Z,89.40
2017-10-29T07:20:52.856Z,89.22
2017-10-29T07:23:20.353Z,89.49
2017-10-29T07:25:47.899Z,89.44
2017-10-29T07:28:15.402Z,89.13
2017-10-29T07:30:42.902Z,89.51
2017-10-29T07:33:10.414Z,89.73
2017-10-29T07:35:37.890Z,90.01
2017-10-29T07:38:05.386Z,90.01
2017-10-29T07:40:32.923Z,90.23
2017-10-29T07:43:00.424Z,90.28
2017-10-29T07:45:27.931Z,89.87
2017-10-29T07:47:55.442Z,89.65
2017-10-29T07:50:22.940Z,89.51
2017-10-29T07:52:50.426Z,89.42
2017-10-29T07:55:17.950Z,89.91
2017-10-29T07:57:45.442Z,89.01
2017-10-29T08:00:12.933Z,89.65
2017-10-29T08:02:40.437Z,89.54
2017-10-29T08:05:07.943Z,89.21
2017-10-29T08:07:35.929Z,88.81
2017-10-29T08:10:03.428Z,88.64
2017-10-29T08:12:30.918Z,88.51
2017-10-29T08:14:58.443Z,88.85
2017-10-29T08:17:25.938Z,88.53
2017-10-29T08:19:53.438Z,88.71
2017-10-29T08:22:20.928Z,88.56
2017-10-29T08:24:48.454Z,88.37
2017-10-29T08:27:15.962Z,88.28
2017-10-29T08:29:43.454Z,88.32
2017-10-29T08:32:10.961Z,88.05
2017-10-29T08:34:38.478Z,87.84
2017-10-29T08:37:05.987Z,87.42
2017-10-29T08:39:33.498Z,87.94
2017-10-29T08:42:01.009Z,87.88
2017-10-29T08:44:28.528Z,87.81
2017-10-29T08:46:56.905Z,88.18
2017-10-29T08:49:24.433Z,87.59
2017-10-29T08:51:51.941Z,87.94
2017-10-29T08:54:19.440Z,87.28
2017-10-29T08:56:46.949Z,86.95
2017-10-29T08:59:14.455Z,87.43
2017-10-29T09:01:41.985Z,87.30
2017-10-29T09:04:09.477Z,87.38
2017-10-29T09:06:36.999Z,87.97
2017-10-29T09:09:04.498Z,87.77
2017-10-29T09:11:32.039Z,87.85
2017-10-29T09:13:59.610Z,88.11
2017-10-29T09:16:27.152Z,88.44
2017-10-29T09:18:54.643Z,88.11
2017-10-29T09:21:22.147Z,88.97
2017-10-29T09:23:49.637Z,89.15
2017-10-29T09:26:17.135Z,89.28
2017-10-29T09:28:44.663Z,89.46
2017-10-29T09:31:12.172Z,89.81
2017-10-29T09:33:39.704Z,90.27
2017-10-29T09:36:07.205Z,90.79
2017-10-29T09:38:34.734Z,89.53
2017-10-29T09:41:02.243Z,89.82
2017-10-29T09:43:29.790Z,89.66
2017-10-29T09:45:57.310Z,90.19
2017-10-29T09:48:24.830Z,90.15
2017-10-29T09:50:53.081Z,89.69
2017-10-29T09:53:20.602Z,89.99
2017-10-29T09:55:48.110Z,89.64
2017-10-29T09:58:15.636Z,90.72
2017-10-29T10:00:43.214Z,89.57
2017-10-29T10:03:10.834Z,90.96
2017-10-29T10:05:38.341Z,90.76
2017-10-29T10:08:05.875Z,89.85
2017-10-29T10:10:33.406Z,90.71
2017-10-29T10:13:00.899Z,90.94
2017-10-29T10:15:28.413Z,92.03
2017-10-29T10:17:55.947Z,91.93
2017-10-29T10:20:23.451Z,93.43
2017-10-29T10:22:50.974Z,91.41
2017-10-29T10:25:18.476Z,90.73
2017-10-29T10:27:46.010Z,91.90
2017-10-29T10:30:13.524Z,93.62
2017-10-29T10:32:41.023Z,94.85
2017-10-29T10:35:08.537Z,95.67
2017-10-29T10:37:36.051Z,95.06
2017-10-29T10:40:03.595Z,93.65
2017-10-29T10:42:31.082Z,94.78
2017-10-29T10:44:58.603Z,93.23
2017-10-29T10:47:26.433Z,94.76
2017-10-29T10:49:53.955Z,94.52
2017-10-29T10:52:21.450Z,93.94
2017-10-29T10:54:48.980Z,93.86
2017-10-29T10:57:16.478Z,93.53
2017-10-29T10:59:44.018Z,93.47
2017-10-29T11:02:11.529Z,92.92
2017-10-29T11:04:41.911Z,92.99
2017-10-29T11:07:09.405Z,91.51
2017-10-29T11:09:36.917Z,92.11
2017-10-29T11:12:04.431Z,92.62
2017-10-29T11:14:31.942Z,92.02
2017-10-29T11:16:59.944Z,92.57
2017-10-29T11:19:27.467Z,91.58
2017-10-29T11:21:55.008Z,91.42
2017-10-29T11:24:22.505Z,91.59
2017-10-29T11:26:50.247Z,90.04
2017-10-29T11:29:17.780Z,89.27
2017-10-29T11:31:45.329Z,90.22
2017-10-29T11:34:12.895Z,89.76
2017-10-29T11:36:40.453Z,88.54
2017-10-29T11:39:07.980Z,85.74
2017-10-29T11:41:35.553Z,85.74
2017-10-29T11:44:03.106Z,83.97
2017-10-29T11:46:30.610Z,82.86
2017-10-29T11:48:58.163Z,82.63
2017-10-29T11:51:25.819Z,79.78
2017-10-29T11:53:53.340Z,77.75
2017-10-29T11:56:20.909Z,78.21
2017-10-29T11:58:48.458Z,82.25
2017-10-29T12:01:15.989Z,83.99
2017-10-29T12:03:43.478Z,86.11
2017-10-29T12:06:11.004Z,86.53
2017-10-29T12:08:38.548Z,85.17
2017-10-29T12:11:06.054Z,86.91
2017-10-29T12:13:33.554Z,86.32
2017-10-29T12:16:01.085Z,84.59
2017-10-29T12:18:28.590Z,80.26
2017-10-29T12:20:56.106Z,80.00
2017-10-29T12:23:23.626Z,74.14
2017-10-29T12:25:51.155Z,68.35
2017-10-29T12:28:18.685Z,65.93
2017-10-29T12:30:46.212Z,69.65
2017-10-29T12:33:13.714Z,69.92
2017-10-29T12:35:41.229Z,72.05
2017-10-29T12:38:08.734Z,73.56
2017-10-29T12:40:36.473Z,74.95
2017-10-29T12:43:03.979Z,76.36
2017-10-29T12:45:31.493Z,74.44
2017-10-29T12:47:59.010Z,74.86
2017-10-29T12:50:26.527Z,74.59
2017-10-29T12:52:54.152Z,75.27
2017-10-29T12:55:21.666Z,76.22
2017-10-29T12:57:49.196Z,75.01
2017-10-29T13:00:16.714Z,77.31
2017-10-29T13:02:44.245Z,75.65
2017-10-29T13:05:11.753Z,72.70
2017-10-29T13:07:39.246Z,73.15
2017-10-29T13:10:06.754Z,73.20
2017-10-29T13:12:34.288Z,73.36
2017-10-29T13:15:01.793Z,72.45
2017-10-29T13:17:29.457Z,71.77
2017-10-29T13:19:57.007Z,71.48
2017-10-29T13:22:24.503Z,69.90
2017-10-29T13:24:52.022Z,67.64
2017-10-29T13:27:19.578Z,68.12
2017-10-29T13:29:47.198Z,68.64
2017-10-29T13:34:41.552Z,68.18
2017-10-29T13:37:09.054Z,64.91
2017-10-29T13:39:36.588Z,61.35
2017-10-29T13:42:04.107Z,54.54
2017-10-29T13:44:31.641Z,59.26
2017-10-29T13:46:59.156Z,58.65
2017-10-29T13:49:26.696Z,57.67
2017-10-29T13:51:54.227Z,52.75
2017-10-29T13:54:21.746Z,48.95
2017-10-29T13:56:49.260Z,49.37
2017-10-29T13:59:16.762Z,45.41
2017-10-29T14:01:44.280Z,43.01
2017-10-29T14:04:11.783Z,45.76
2017-10-29T14:06:39.318Z,43.88
2017-10-29T14:09:06.838Z,40.91
2017-10-29T14:11:34.380Z,47.35
2017-10-29T14:14:01.911Z,47.80
2017-10-29T14:16:29.404Z,47.34
2017-10-29T14:18:56.904Z,47.34
2017-10-29T14:21:24.402Z,48.35
2017-10-29T14:23:51.929Z,50.27
2017-10-29T14:26:19.463Z,50.67
2017-10-29T14:28:46.990Z,49.31
2017-10-29T14:31:14.505Z,51.90
2017-10-29T14:33:42.037Z,52.65
2017-10-29T14:36:09.567Z,52.24
2017-10-29T14:38:37.112Z,53.59
2017-10-29T14:41:04.631Z,53.06
2017-10-29T14:43:32.155Z,53.37
2017-10-29T14:45:59.671Z,51.34
2017-10-29T14:48:27.235Z,50.22
2017-10-29T14:50:54.766Z,51.28
2017-10-29T14:53:22.294Z,53.70
2017-10-29T14:55:49.805Z,54.49
2017-10-29T14:58:17.424Z,56.37
2017-10-29T15:00:45.083Z,59.00
2017-10-29T15:03:12.578Z,60.67
2017-10-29T15:05:40.130Z,59.19
2017-10-29T15:08:07.656Z,59.54
2017-10-29T15:10:35.171Z,62.24
2017-10-29T15:13:02.690Z,60.78
2017-10-29T15:15:30.209Z,62.54
2017-10-29T15:17:57.704Z,62.42
2017-10-29T15:20:25.219Z,64.36
2017-10-29T15:22:52.723Z,63.23
2017-10-29T15:25:20.257Z,62.14
2017-10-29T15:27:47.760Z,64.87
2017-10-29T15:30:15.262Z,63.56
2017-10-29T15:32:42.782Z,62.74
2017-10-29T15:35:10.326Z,63.81
2017-10-29T15:37:37.825Z,64.16
2017-10-29T15:40:05.328Z,62.34
2017-10-29T15:42:32.827Z,68.84
2017-10-29T15:45:00.342Z,67.55
2017-10-29T15:47:27.850Z,68.88
2017-10-29T15:49:55.358Z,67.49
2017-10-29T15:52:22.896Z,68.68
2017-10-29T15:54:50.451Z,74.58
2017-10-29T15:57:17.964Z,75.25
2017-10-29T15:59:45.649Z,79.70
2017-10-29T16:02:13.158Z,81.20
2017-10-29T16:04:40.653Z,81.56
2017-10-29T16:07:08.151Z,82.46
2017-10-29T16:09:35.664Z,84.59
2017-10-29T16:12:03.174Z,85.34
2017-10-29T16:14:30.683Z,84.18
2017-10-29T16:16:58.206Z,84.29
2017-10-29T16:19:25.718Z,84.82
2017-10-29T16:21:53.220Z,85.06
2017-10-29T16:24:20.732Z,85.86
2017-10-29T16:26:48.233Z,86.26
2017-10-29T16:29:15.742Z,86.61
2017-10-29T16:31:43.279Z,86.08
2017-10-29T16:34:10.802Z,86.83
2017-10-29T16:36:38.314Z,87.07
2017-10-29T16:39:05.818Z,87.34
2017-10-29T16:41:33.337Z,88.49
2017-10-29T16:44:00.843Z,89.19
2017-10-29T16:46:28.357Z,88.00
2017-10-29T16:48:55.987Z,88.77
2017-10-29T16:51:23.510Z,89.06
2017-10-29T16:53:50.996Z,89.51
2017-10-29T16:56:18.519Z,89.75
2017-10-29T16:58:46.063Z,90.25
2017-10-29T17:01:13.569Z,89.23
2017-10-29T17:03:41.083Z,89.40
2017-10-29T17:06:08.602Z,88.33
2017-10-29T17:08:36.105Z,88.04
2017-10-29T17:11:03.693Z,89.26
2017-10-29T17:13:31.239Z,89.51
2017-10-29T17:15:58.781Z,89.90
2017-10-29T17:18:26.300Z,90.74
2017-10-29T17:20:53.809Z,91.42
2017-10-29T17:23:21.330Z,92.47
2017-10-29T17:25:48.835Z,92.13
2017-10-29T17:28:16.354Z,92.92
2017-10-29T17:30:43.895Z,92.51
2017-10-29T17:33:11.415Z,93.33
2017-10-29T17:35:38.922Z,93.46
2017-10-29T17:38:06.473Z,93.35
2017-10-29T17:40:33.963Z,93.04
2017-10-29T17:43:01.472Z,93.47
2017-10-29T17:45:28.994Z,93.60
2017-10-29T17:47:56.505Z,93.78
2017-10-29T17:50:24.041Z,93.67
2017-10-29T17:52:51.556Z,94.09
2017-10-29T17:55:19.083Z,94.02
2017-10-29T17:57:47.566Z,94.36
2017-10-29T18:00:15.063Z,94.55
2017-10-29T18:02:42.570Z,93.43
2017-10-29T18:05:10.071Z,93.84
2017-10-29T18:07:37.647Z,93.75
2017-10-29T18:10:05.268Z,93.25
2017-10-29T18:12:32.766Z,92.91
2017-10-29T18:15:00.311Z,93.66
2017-10-29T18:17:27.807Z,94.84
2017-10-29T18:19:55.309Z,95.42
2017-10-29T18:22:23.196Z,95.38
2017-10-29T18:24:50.701Z,95.84
2017-10-29T18:27:18.194Z,95.97
2017-10-29T18:29:45.696Z,95.60
2017-10-29T18:32:13.204Z,94.86
2017-10-29T18:34:40.690Z,95.41
2017-10-29T18:37:08.189Z,95.24
2017-10-29T18:39:35.691Z,94.14
2017-10-29T18:42:03.329Z,93.41
2017-10-29T18:44:30.886Z,92.40
2017-10-29T18:46:58.410Z,91.82
2017-10-29T18:49:25.910Z,90.36
2017-10-29T18:51:53.408Z,90.15
2017-10-29T18:54:20.955Z,89.31
2017-10-29T18:56:48.547Z,88.00
2017-10-29T18:59:16.235Z,88.42
2017-10-29T19:01:43.907Z,90.04
2017-10-29T19:04:11.445Z,90.57
2017-10-29T19:06:38.978Z,91.94
2017-10-29T19:09:06.563Z,92.21
2017-10-29T19:11:34.085Z,92.91
2017-10-29T19:14:01.648Z,94.02
2017-10-29T19:16:29.174Z,94.47
2017-10-29T19:18:56.721Z,95.21
2017-10-29T19:21:24.290Z,95.56
2017-10-29T19:23:51.852Z,95.30
2017-10-29T19:26:19.464Z,94.63
2017-10-29T19:28:47.054Z,94.77
2017-10-29T19:31:14.604Z,92.90
2017-10-29T19:33:42.291Z,92.26
2017-10-29T19:36:09.848Z,92.13
2017-10-29T19:38:37.409Z,93.63
2017-10-29T19:41:05.055Z,93.83
2017-10-29T19:43:32.606Z,94.14
2017-10-29T19:46:00.125Z,93.15
2017-10-29T19:48:27.723Z,93.09
2017-10-29T19:50:55.255Z,93.68
2017-10-29T19:53:22.794Z,93.66
2017-10-29T19:55:50.304Z,93.57
2017-10-29T19:58:17.861Z,93.78
2017-10-29T20:00:45.391Z,94.16
2017-10-29T20:03:12.906Z,94.46
2017-10-29T20:05:40.462Z,94.57
2017-10-29T20:08:07.986Z,95.22
2017-10-29T20:10:35.554Z,95.83
2017-10-29T20:13:03.143Z,95.93
2017-10-29T20:15:30.687Z,96.27
2017-10-29T20:17:58.344Z,96.37
2017-10-29T20:20:25.910Z,96.40
2017-10-29T20:22:53.421Z,96.42
2017-10-29T20:25:20.927Z,96.31
2017-10-29T20:27:48.462Z,96.08
2017-10-29T20:30:16.014Z,96.03
2017-10-29T20:32:43.528Z,95.57
2017-10-29T20:35:11.062Z,94.71
2017-10-29T20:37:38.780Z,94.29
2017-10-29T20:40:06.306Z,94.18
2017-10-29T20:42:33.825Z,93.99
2017-10-29T20:45:01.424Z,94.19
2017-10-29T20:47:28.930Z,94.64
2017-10-29T20:49:56.467Z,94.69
2017-10-29T20:52:23.972Z,95.40
2017-10-29T20:54:51.476Z,94.92
2017-10-29T20:57:19.004Z,94.52
2017-10-29T20:59:46.522Z,93.93
2017-10-29T21:02:14.028Z,93.76
2017-10-29T21:04:41.563Z,93.39
2017-10-29T21:07:09.212Z,92.66
2017-10-29T21:09:36.738Z,93.26
2017-10-29T21:12:04.273Z,94.00
2017-10-29T21:14:31.769Z,95.15
2017-10-29T21:16:59.279Z,95.65
2017-10-29T21:19:26.889Z,96.07
2017-10-29T21:21:54.392Z,96.18
2017-10-29T21:24:21.894Z,96.06
2017-10-29T21:26:49.398Z,95.92
2017-10-29T21:29:16.927Z,96.25
2017-10-29T21:31:44.447Z,96.07
2017-10-29T21:34:11.956Z,96.03
2017-10-29T21:36:39.469Z,95.99
2017-10-29T21:39:06.990Z,96.22
2017-10-29T21:41:34.521Z,97.21
2017-10-29T21:44:02.041Z,96.86
2017-10-29T21:46:29.550Z,97.39
2017-10-29T21:48:57.052Z,97.58
2017-10-29T21:51:24.559Z,97.60
2017-10-29T21:53:52.141Z,97.31
2017-10-29T21:56:19.656Z,97.36
2017-10-29T21:58:47.148Z,97.44
2017-10-29T22:01:14.645Z,97.71
2017-10-29T22:03:42.167Z,97.92
2017-10-29T22:06:09.673Z,98.27
2017-10-29T22:08:37.194Z,98.18
2017-10-29T22:11:04.718Z,98.10
2017-10-29T22:13:32.221Z,97.81
2017-10-29T22:15:59.824Z,97.69
2017-10-29T22:18:27.327Z,97.99
2017-10-29T22:20:54.871Z,98.30
2017-10-29T22:23:22.407Z,98.19
2017-10-29T22:25:49.948Z,98.22
2017-10-29T22:28:17.461Z,98.50
2017-10-29T22:30:44.956Z,98.68
2017-10-29T22:33:12.462Z,98.64
2017-10-29T22:35:39.964Z,98.88
2017-10-29T22:38:07.486Z,98.88
2017-10-29T22:40:34.970Z,98.64
2017-10-29T22:43:02.463Z,98.44
2017-10-29T22:45:29.983Z,98.66
2017-10-29T22:47:57.575Z,98.57
2017-10-29T22:50:25.072Z,98.51
2017-10-29T22:52:52.591Z,98.45
2017-10-29T22:55:20.111Z,98.21
2017-10-29T22:57:47.630Z,98.05
2017-10-29T23:00:15.264Z,98.17
2017-10-29T23:02:42.790Z,98.04
2017-10-29T23:05:10.291Z,98.29
2017-10-29T23:07:40.352Z,97.77
2017-10-29T23:10:07.857Z,96.76
2017-10-29T23:12:35.355Z,97.61
2017-10-29T23:15:02.901Z,97.76
2017-10-29T23:17:30.395Z,97.56
2017-10-29T23:19:57.906Z,97.51
2017-10-29T23:22:25.396Z,97.64
2017-10-29T23:24:52.889Z,97.80
2017-10-29T23:27:20.374Z,98.09
2017-10-29T23:29:47.865Z,97.96
2017-10-29T23:32:15.379Z,98.01
2017-10-29T23:34:42.882Z,98.37
2017-10-29T23:37:10.387Z,98.52
2017-10-29T23:39:37.949Z,98.64
2017-10-29T23:42:05.469Z,98.84
2017-10-29T23:44:32.968Z,99.13
2017-10-29T23:47:00.492Z,98.96
2017-10-29T23:49:27.991Z,99.09
2017-10-29T23:51:55.481Z,99.23
2017-10-29T23:54:22.976Z,98.83
2017-10-29T23:56:50.475Z,98.65
2017-10-29T23:59:17.975Z,98.37
